createdAt,value
2018-12-15T00:00:31.736Z,55.80
2018-12-15T00:03:05.443Z,50.97
2018-12-15T00:05:43.919Z,46.67
2018-12-15T00:08:15.779Z,46.93
2018-12-15T00:10:54.354Z,48.03
2018-12-15T00:13:31.215Z,44.60
2018-12-15T00:16:08.010Z,41.20
2018-12-15T00:18:43.331Z,42.87
2018-12-15T00:21:14.515Z,43.83
2018-12-15T00:24:02.387Z,42.00
2018-12-15T00:26:43.716Z,47.30
2018-12-15T00:29:28.731Z,47.27
2018-12-15T00:32:08.120Z,44.70
2018-12-15T00:34:42.444Z,40.83
2018-12-15T00:37:16.746Z,42.83
2018-12-15T00:39:49.457Z,43.33
2018-12-15T00:42:35.210Z,43.73
2018-12-15T00:45:05.367Z,44.53
2018-12-15T00:47:36.455Z,45.87
2018-12-15T00:50:07.875Z,41.60
2018-12-15T00:52:52.999Z,39.87
2018-12-15T00:55:24.502Z,35.83
2018-12-15T00:57:57.420Z,47.30
2018-12-15T01:00:29.325Z,43.27
2018-12-15T01:05:49.603Z,44.37
2018-12-15T01:08:19.867Z,42.33
2018-12-15T01:10:51.502Z,48.30
2018-12-15T01:13:27.662Z,47.17
2018-12-15T01:15:57.556Z,50.03
2018-12-15T01:18:42.271Z,45.30
2018-12-15T01:21:13.355Z,46.57
2018-12-15T01:23:50.483Z,49.87
2018-12-15T01:26:23.771Z,51.30
2018-12-15T01:28:57.212Z,48.47
2018-12-15T01:31:29.632Z,47.93
2018-12-15T01:34:18.978Z,43.97
2018-12-15T01:36:52.778Z,46.80
2018-12-15T01:39:23.347Z,48.67
2018-12-15T01:42:07.228Z,45.37
2018-12-15T01:44:39.689Z,45.80
2018-12-15T01:47:11.865Z,45.37
2018-12-15T01:49:55.224Z,46.37
2018-12-15T01:52:29.429Z,45.77
2018-12-15T01:55:00.026Z,47.63
2018-12-15T01:57:33.924Z,46.57
2018-12-15T02:00:09.005Z,42.23
2018-12-15T02:02:48.560Z,48.90
2018-12-15T02:05:19.950Z,49.73
2018-12-15T02:07:52.691Z,46.87
2018-12-15T02:10:23.974Z,45.70
2018-12-15T02:13:00.565Z,49.73
2018-12-15T02:15:31.812Z,45.17
2018-12-15T02:18:02.637Z,48.50
2018-12-15T02:20:33.441Z,46.13
2018-12-15T02:23:06.834Z,49.47
2018-12-15T02:25:40.761Z,53.17
2018-12-15T02:28:10.704Z,49.40
2018-12-15T02:30:49.022Z,48.90
2018-12-15T02:33:47.820Z,51.10
2018-12-15T02:36:23.780Z,56.33
2018-12-15T02:38:56.249Z,50.00
2018-12-15T02:41:30.887Z,53.27
2018-12-15T02:44:09.879Z,80.13
2018-12-15T02:46:45.747Z,57.57
2018-12-15T02:49:17.131Z,57.77
2018-12-15T02:51:50.193Z,57.80
2018-12-15T02:54:30.457Z,54.23
2018-12-15T02:57:03.942Z,87.37
2018-12-15T02:59:39.524Z,58.27
2018-12-15T03:02:26.851Z,59.33
2018-12-15T03:04:57.828Z,56.73
2018-12-15T03:07:28.447Z,55.07
2018-12-15T03:09:58.671Z,56.40
2018-12-15T03:12:40.039Z,64.83
2018-12-15T03:15:19.162Z,94.07
2018-12-15T03:17:50.736Z,59.97
2018-12-15T03:20:20.543Z,64.70
2018-12-15T03:23:06.698Z,61.70
2018-12-15T03:25:43.312Z,61.43
2018-12-15T03:28:18.921Z,92.90
2018-12-15T03:31:07.433Z,68.70
2018-12-15T03:33:43.171Z,61.53
2018-12-15T03:36:25.999Z,55.97
2018-12-15T03:39:12.564Z,63.90
2018-12-15T03:41:57.957Z,60.73
2018-12-15T03:44:36.105Z,64.93
2018-12-15T03:50:30.648Z,59.20
2018-12-15T03:53:19.703Z,65.80
2018-12-15T03:56:05.348Z,87.40
2018-12-15T03:58:54.813Z,60.97
2018-12-15T04:01:39.274Z,59.90
2018-12-15T04:07:24.931Z,60.17
2018-12-15T04:09:59.245Z,64.77
2018-12-15T04:12:34.023Z,61.27
2018-12-15T04:15:04.234Z,61.00
2018-12-15T04:17:35.668Z,63.23
2018-12-15T04:20:09.390Z,58.27
2018-12-15T04:22:42.750Z,64.23
2018-12-15T04:25:12.628Z,59.60
2018-12-15T04:27:43.833Z,57.53
2018-12-15T04:30:16.061Z,60.93
2018-12-15T04:33:02.731Z,61.07
2018-12-15T04:35:32.572Z,59.77
2018-12-15T04:38:03.651Z,59.17
2018-12-15T04:40:34.720Z,56.80
2018-12-15T04:43:08.264Z,60.23
2018-12-15T04:45:40.921Z,53.13
2018-12-15T04:48:11.576Z,56.13
2018-12-15T04:50:41.741Z,59.40
2018-12-15T04:53:15.494Z,60.90
2018-12-15T04:55:45.161Z,57.63
2018-12-15T04:58:15.054Z,57.97
2018-12-15T05:00:44.948Z,58.60
2018-12-15T05:03:26.779Z,63.53
2018-12-15T05:06:20.486Z,57.20
2018-12-15T05:12:36.012Z,56.70
2018-12-15T05:15:21.057Z,52.30
2018-12-15T05:18:04.938Z,53.33
2018-12-15T05:20:36.522Z,62.77
2018-12-15T05:23:11.682Z,54.40
2018-12-15T05:25:58.802Z,56.90
2018-12-15T05:28:34.653Z,55.80
2018-12-15T05:31:16.526Z,57.00
2018-12-15T05:33:47.683Z,53.93
2018-12-15T05:36:18.163Z,51.00
2018-12-15T05:38:49.064Z,53.47
2018-12-15T05:41:18.775Z,47.87
2018-12-15T05:43:54.539Z,56.07
2018-12-15T05:46:24.649Z,55.20
2018-12-15T05:48:55.479Z,78.80
2018-12-15T05:51:26.125Z,47.20
2018-12-15T05:53:59.399Z,49.67
2018-12-15T05:56:29.739Z,48.73
2018-12-15T05:58:59.542Z,53.97
2018-12-15T06:01:29.457Z,48.23
2018-12-15T06:04:02.659Z,44.93
2018-12-15T06:06:32.545Z,47.73
2018-12-15T06:09:03.500Z,46.97
2018-12-15T06:11:33.524Z,44.93
2018-12-15T06:14:07.706Z,48.60
2018-12-15T06:16:37.750Z,45.03
2018-12-15T06:19:07.968Z,42.10
2018-12-15T06:21:39.062Z,42.30
2018-12-15T06:24:09.860Z,39.63
2018-12-15T06:26:44.103Z,41.30
2018-12-15T06:29:19.104Z,38.23
2018-12-15T06:31:50.023Z,37.57
2018-12-15T06:34:20.825Z,39.13
2018-12-15T06:36:51.110Z,38.90
2018-12-15T06:39:23.098Z,39.00
2018-12-15T06:41:56.051Z,38.07
2018-12-15T06:44:25.850Z,41.07
2018-12-15T06:46:56.523Z,36.23
2018-12-15T06:49:27.341Z,40.17
2018-12-15T06:51:59.784Z,57.33
2018-12-15T06:54:29.469Z,36.47
2018-12-15T06:57:00.119Z,36.93
2018-12-15T06:59:30.074Z,33.47
2018-12-15T07:02:05.395Z,40.07
2018-12-15T07:04:35.307Z,38.03
2018-12-15T07:07:10.877Z,39.97
2018-12-15T07:19:40.790Z,55.60
2018-12-15T07:55:01.391Z,35.93
2018-12-15T07:57:32.762Z,33.20
2018-12-15T08:00:02.810Z,36.77
2018-12-15T08:02:39.766Z,34.53
2018-12-15T08:05:09.971Z,34.07
2018-12-15T08:07:40.412Z,38.10
2018-12-15T08:10:10.274Z,50.73
2018-12-15T08:12:50.178Z,40.07
2018-12-15T08:15:20.191Z,34.67
2018-12-15T08:17:50.601Z,36.93
2018-12-15T08:20:20.414Z,33.73
2018-12-15T08:22:53.813Z,39.53
2018-12-15T08:25:24.189Z,37.37
2018-12-15T08:27:54.346Z,35.60
2018-12-15T08:30:24.475Z,35.30
2018-12-15T08:35:52.684Z,31.30
2018-12-15T08:38:24.113Z,34.63
2018-12-15T08:40:56.807Z,32.23
2018-12-15T08:43:34.016Z,35.60
2018-12-15T08:46:19.503Z,32.47
2018-12-15T08:48:50.339Z,38.23
2018-12-15T08:51:21.289Z,34.87
2018-12-15T08:53:52.463Z,50.20
2018-12-15T08:56:41.556Z,32.07
2018-12-15T08:59:12.527Z,34.23
2018-12-15T09:01:43.628Z,32.00
2018-12-15T09:11:01.723Z,36.40
2018-12-15T09:14:05.223Z,31.67
2018-12-15T09:16:44.808Z,30.13
2018-12-15T09:19:23.302Z,35.87
2018-12-15T09:22:11.112Z,31.70
2018-12-15T09:24:36.554Z,34.23
2018-12-15T09:27:10.470Z,33.47
2018-12-15T09:29:43.315Z,33.70
2018-12-15T09:32:22.356Z,33.07
2018-12-15T09:34:59.308Z,35.60
2018-12-15T09:37:29.104Z,31.40
2018-12-15T09:39:59.376Z,36.67
2018-12-15T09:42:37.495Z,34.87
2018-12-15T09:45:12.988Z,31.33
2018-12-15T09:47:52.726Z,32.33
2018-12-15T09:50:27.341Z,33.30
2018-12-15T09:53:06.625Z,35.10
2018-12-15T09:55:37.245Z,33.63
2018-12-15T09:58:11.466Z,33.63
2018-12-15T10:00:41.793Z,33.10
2018-12-15T10:03:18.053Z,38.57
2018-12-15T10:05:47.967Z,37.83
2018-12-15T10:08:18.008Z,35.53
2018-12-15T10:10:48.016Z,36.53
2018-12-15T10:13:32.779Z,31.23
2018-12-15T10:16:20.789Z,37.07
2018-12-15T10:18:54.475Z,35.43
2018-12-15T10:21:38.822Z,41.27
2018-12-15T10:24:08.612Z,33.97
2018-12-15T10:26:40.235Z,37.73
2018-12-15T10:29:15.175Z,38.37
2018-12-15T10:31:50.214Z,34.37
2018-12-15T10:34:19.858Z,34.73
2018-12-15T10:36:49.923Z,42.00
2018-12-15T10:39:19.867Z,37.10
2018-12-15T10:41:51.446Z,39.30
2018-12-15T10:44:35.172Z,38.23
2018-12-15T10:47:06.796Z,40.07
2018-12-15T10:49:40.285Z,40.07
2018-12-15T10:52:25.413Z,35.70
2018-12-15T10:54:57.602Z,34.30
2018-12-15T10:57:30.653Z,38.50
2018-12-15T11:00:00.930Z,44.40
2018-12-15T11:02:37.814Z,40.77
2018-12-15T11:05:08.501Z,40.07
2018-12-15T11:07:44.763Z,37.07
2018-12-15T11:10:16.105Z,47.93
2018-12-15T11:12:52.525Z,37.57
2018-12-15T11:15:24.840Z,41.10
2018-12-15T11:17:56.895Z,40.77
2018-12-15T11:20:29.573Z,36.67
2018-12-15T11:23:30.949Z,33.60
2018-12-15T11:26:06.300Z,38.23
2018-12-15T11:28:38.448Z,44.23
2018-12-15T11:31:13.870Z,37.60
2018-12-15T11:33:48.498Z,36.00
2018-12-15T11:36:19.497Z,34.20
2018-12-15T11:38:51.380Z,38.77
2018-12-15T11:41:21.072Z,37.07
2018-12-15T11:43:56.341Z,37.57
2018-12-15T11:46:26.985Z,36.03
2018-12-15T11:48:56.903Z,34.50
2018-12-15T11:51:27.332Z,42.73
2018-12-15T11:54:12.889Z,35.00
2018-12-15T11:56:44.506Z,34.57
2018-12-15T11:59:17.092Z,37.50
2018-12-15T12:01:53.132Z,41.90
2018-12-15T12:04:23.823Z,38.60
2018-12-15T12:06:53.642Z,38.73
2018-12-15T12:09:23.443Z,39.00
2018-12-15T12:11:57.126Z,38.63
2018-12-15T12:14:27.259Z,37.53
2018-12-15T12:16:56.852Z,35.57
2018-12-15T12:19:27.604Z,40.50
2018-12-15T12:22:03.280Z,40.93
2018-12-15T12:24:33.249Z,40.07
2018-12-15T12:27:10.783Z,40.60
2018-12-15T12:29:45.850Z,40.73
2018-12-15T12:32:35.839Z,35.23
2018-12-15T12:35:11.347Z,39.67
2018-12-15T12:37:41.348Z,37.00
2018-12-15T12:40:11.048Z,40.43
2018-12-15T12:42:44.398Z,39.53
2018-12-15T12:45:15.018Z,37.93
2018-12-15T12:47:45.547Z,37.90
2018-12-15T12:50:15.541Z,37.83
2018-12-15T12:52:48.766Z,38.93
2018-12-15T12:55:19.937Z,40.40
2018-12-15T12:57:50.516Z,38.33
2018-12-15T13:00:22.172Z,40.63
2018-12-15T13:02:55.080Z,38.63
2018-12-15T13:05:36.097Z,35.73
2018-12-15T13:08:07.229Z,35.53
2018-12-15T13:10:38.972Z,36.17
2018-12-15T13:13:24.028Z,31.93
2018-12-15T13:15:55.170Z,36.53
2018-12-15T13:18:26.866Z,40.70
2018-12-15T13:21:05.252Z,38.87
2018-12-15T13:23:39.182Z,38.70
2018-12-15T13:26:18.656Z,39.87
2018-12-15T13:28:53.379Z,37.03
2018-12-15T13:31:30.984Z,41.97
2018-12-15T13:34:13.036Z,44.70
2018-12-15T13:36:43.597Z,39.73
2018-12-15T13:39:14.001Z,38.43
2018-12-15T13:41:49.546Z,40.47
2018-12-15T13:44:48.336Z,45.83
2018-12-15T13:47:20.632Z,44.67
2018-12-15T13:49:51.745Z,45.20
2018-12-15T13:52:27.010Z,39.33
2018-12-15T13:55:03.541Z,41.80
2018-12-15T13:57:34.203Z,44.70
2018-12-15T14:00:06.614Z,47.70
2018-12-15T14:02:47.011Z,49.50
2018-12-15T14:05:19.214Z,45.20
2018-12-15T14:07:53.219Z,41.47
2018-12-15T14:13:10.158Z,47.20
2018-12-15T14:15:41.886Z,45.17
2018-12-15T14:18:17.230Z,45.63
2018-12-15T14:20:47.519Z,43.23
2018-12-15T14:23:32.439Z,45.27
2018-12-15T14:26:06.248Z,46.57
2018-12-15T14:28:36.005Z,45.70
2018-12-15T14:31:06.351Z,44.27
2018-12-15T14:33:43.012Z,46.47
2018-12-15T14:36:13.031Z,42.37
2018-12-15T14:38:42.843Z,44.60
2018-12-15T14:41:18.943Z,42.93
2018-12-15T14:44:00.038Z,51.87
2018-12-15T14:46:34.353Z,44.80
2018-12-15T14:52:22.410Z,45.47
2018-12-15T14:55:04.968Z,46.93
2018-12-15T14:57:43.680Z,46.50
2018-12-15T15:03:12.595Z,48.00
2018-12-15T15:08:33.174Z,47.37
2018-12-15T15:11:29.202Z,49.83
2018-12-15T15:14:20.204Z,50.60
2018-12-15T15:17:00.174Z,47.30
2018-12-15T15:19:34.801Z,47.50
2018-12-15T15:22:31.570Z,52.80
2018-12-15T15:25:22.454Z,46.77
2018-12-15T15:28:10.847Z,44.33
2018-12-15T15:30:59.684Z,46.13
2018-12-15T15:40:15.674Z,45.03
2018-12-15T15:43:02.770Z,45.77
2018-12-15T15:45:52.170Z,47.20
2018-12-15T16:03:02.664Z,44.30
2018-12-15T16:09:16.307Z,49.80
2018-12-15T16:11:50.413Z,47.27
2018-12-15T16:14:27.434Z,46.43
2018-12-15T16:17:00.636Z,48.23
2018-12-15T16:19:41.413Z,45.10
2018-12-15T16:22:20.141Z,44.93
2018-12-15T16:25:03.400Z,47.97
2018-12-15T16:27:40.848Z,42.47
2018-12-15T16:31:31.045Z,47.43
2018-12-15T16:34:50.903Z,47.80
2018-12-15T16:40:51.287Z,45.10
2018-12-15T16:43:31.569Z,44.67
2018-12-15T16:46:22.919Z,44.67
2018-12-15T16:49:09.660Z,45.23
2018-12-15T16:51:41.993Z,39.17
2018-12-15T16:54:14.603Z,45.10
2018-12-15T16:56:44.818Z,47.47
2018-12-15T17:15:42.655Z,45.57
2018-12-15T17:18:26.554Z,51.10
2018-12-15T17:20:59.928Z,46.77
2018-12-15T17:23:36.878Z,50.30
2018-12-15T17:26:13.661Z,47.77
2018-12-15T17:28:53.608Z,48.77
2018-12-15T17:31:27.424Z,42.83
2018-12-15T17:37:08.124Z,46.70
2018-12-15T17:39:40.018Z,48.50
2018-12-15T17:42:26.905Z,39.17
2018-12-15T17:51:03.284Z,47.23
2018-12-15T17:53:40.256Z,48.70
2018-12-15T17:56:14.579Z,51.87
2018-12-15T17:58:46.114Z,52.07
2018-12-15T18:01:16.383Z,54.53
2018-12-15T18:03:51.870Z,49.83
2018-12-15T18:06:21.580Z,51.53
2018-12-15T18:08:52.320Z,52.93
2018-12-15T18:11:42.729Z,49.97
2018-12-15T18:17:31.614Z,40.97
2018-12-15T18:20:09.897Z,48.70
2018-12-15T18:22:41.365Z,56.17
2018-12-15T18:25:15.886Z,53.57
2018-12-15T18:27:56.830Z,53.57
2018-12-15T18:30:34.374Z,85.40
2018-12-15T18:33:04.237Z,52.87
2018-12-15T18:35:34.259Z,56.03
2018-12-15T18:38:05.195Z,56.03
2018-12-15T18:40:38.176Z,51.07
2018-12-15T18:43:14.088Z,50.50
2018-12-15T18:46:07.831Z,54.67
2018-12-15T18:48:43.866Z,50.33
2018-12-15T18:51:19.089Z,51.10
2018-12-15T18:54:00.840Z,53.03
2018-12-15T18:56:36.303Z,45.20
2018-12-15T18:59:08.417Z,42.27
2018-12-15T19:01:38.723Z,51.50
2018-12-15T19:04:20.612Z,48.63
2018-12-15T19:06:59.191Z,46.33
2018-12-15T19:09:32.527Z,50.40
2018-12-15T19:12:16.255Z,47.47
2018-12-15T19:15:02.733Z,49.77
2018-12-15T19:17:36.027Z,52.53
2018-12-15T19:20:09.378Z,49.87
2018-12-15T19:22:55.579Z,54.70
2018-12-15T19:25:34.717Z,52.43
2018-12-15T19:28:19.375Z,52.57
2018-12-15T19:30:51.317Z,51.53
2018-12-15T19:33:36.634Z,51.00
2018-12-15T19:36:08.398Z,50.20
2018-12-15T19:38:41.875Z,52.47
2018-12-15T19:41:13.970Z,53.17
2018-12-15T19:43:44.841Z,52.23
2018-12-15T19:46:20.496Z,59.67
2018-12-15T19:48:50.493Z,52.93
2018-12-15T19:51:29.328Z,55.60
2018-12-15T19:54:01.869Z,55.17
2018-12-15T19:56:48.598Z,49.77
2018-12-15T19:59:27.895Z,47.17
2018-12-15T20:01:58.395Z,57.10
2018-12-15T20:04:42.466Z,49.70
2018-12-15T20:10:06.706Z,52.80
2018-12-15T20:12:48.973Z,56.93
2018-12-15T20:15:20.063Z,57.80
2018-12-15T20:18:19.616Z,52.80
2018-12-15T20:21:03.258Z,51.87
2018-12-15T20:23:39.680Z,48.17
2018-12-15T20:26:16.582Z,52.73
2018-12-15T20:28:51.799Z,53.83
2018-12-15T20:31:29.796Z,47.10
2018-12-15T20:34:14.445Z,51.67
2018-12-15T20:36:54.667Z,50.70
2018-12-15T20:39:40.023Z,49.40
2018-12-15T20:42:17.187Z,53.77
2018-12-15T20:44:50.092Z,53.97
2018-12-15T20:47:31.929Z,48.10
2018-12-15T20:50:19.588Z,53.73
2018-12-15T20:53:10.556Z,53.87
2018-12-15T20:55:58.358Z,47.07
2018-12-15T20:58:30.021Z,56.97
2018-12-15T21:01:07.111Z,49.97
2018-12-15T21:04:03.475Z,52.00
2018-12-15T21:07:05.818Z,51.03
2018-12-15T21:13:07.367Z,50.57
2018-12-15T21:16:30.337Z,53.80
2018-12-15T21:19:20.702Z,58.03
2018-12-15T21:22:21.421Z,50.73
2018-12-15T21:28:28.839Z,54.77
2018-12-15T21:31:14.634Z,57.40
2018-12-15T21:34:07.562Z,54.60
2018-12-15T21:37:00.550Z,56.30
2018-12-15T21:39:59.849Z,55.90
2018-12-15T21:42:52.497Z,57.10
2018-12-15T21:45:35.550Z,58.50
2018-12-15T21:48:18.579Z,51.73
2018-12-15T21:51:13.587Z,53.97
2018-12-15T21:54:08.334Z,53.03
2018-12-15T21:59:33.935Z,49.37
2018-12-15T22:02:15.182Z,58.07
2018-12-15T22:04:50.083Z,52.40
2018-12-15T22:07:48.202Z,51.73
2018-12-15T22:10:47.291Z,55.50
2018-12-15T22:13:56.088Z,53.13
2018-12-15T22:16:37.770Z,51.60
2018-12-15T22:19:12.190Z,52.93
2018-12-15T22:22:08.462Z,57.30
2018-12-15T22:24:58.624Z,51.80
2018-12-15T22:27:43.851Z,52.23
2018-12-15T22:30:31.103Z,51.63
2018-12-15T22:33:18.022Z,55.50
2018-12-15T22:35:49.781Z,55.80
2018-12-15T22:41:14.593Z,54.63
2018-12-15T22:44:00.776Z,57.70
2018-12-15T22:46:56.302Z,51.10
2018-12-15T22:49:31.601Z,57.80
2018-12-15T22:52:24.959Z,57.33
2018-12-15T22:55:01.893Z,57.13
2018-12-15T22:57:35.209Z,55.00
2018-12-15T23:00:15.199Z,57.10
2018-12-15T23:02:51.420Z,53.13
2018-12-15T23:05:21.161Z,54.83
2018-12-15T23:08:03.754Z,56.77
2018-12-15T23:10:37.672Z,57.33
2018-12-15T23:13:22.024Z,57.63
2018-12-15T23:16:01.476Z,62.27
2018-12-15T23:18:42.184Z,57.40
2018-12-15T23:21:15.134Z,60.83
2018-12-15T23:24:03.786Z,52.37
2018-12-15T23:26:37.687Z,62.93
2018-12-15T23:29:12.341Z,60.10
2018-12-15T23:31:52.553Z,56.33
2018-12-15T23:34:26.869Z,53.07
2018-12-15T23:37:16.730Z,57.20
2018-12-15T23:42:30.697Z,57.80
2018-12-15T23:47:57.591Z,62.77
2018-12-15T23:50:34.958Z,59.23
2018-12-15T23:53:16.861Z,63.23
2018-12-15T23:58:46.295Z,61.67
